Cap Castillo — A8PI5 — position and weather

sailwx.info

Track history (hours):
 
Tides and Currents Weather Stations Pressure Air Temp Water Temp Dewpoint Dewpoint Depression Visibility Wind Speed Wind Dir Waves Ship Positions

Cap Castillo

Last reported at 2017-Jan-16 05:17 UTC. Time now 2017-Jan-19 10:53 UTC.
Position S 00°03' W 047°47'.

Length 215 m; draft 10 m.

Type: Ship. MMSI: 636091558.

Date/timePositionNaut miles runAvg speedWind from/ knotsBaromVisibWave heightAir tempDewpointWater temp
2017-Jan-16 05:17S 00°03' W 047°47'1014.1
2017-Jan-16 04:34S 00°13' W 047°50'1514.6
2017-Jan-16 03:33S 00°20' W 048°03'1514.6
2017-Jan-16 02:33S 00°28' W 048°15'1413.8
2017-Jan-16 01:33S 00°39' W 048°23'1414.3
2017-Jan-16 00:33S 00°53' W 048°29'1212.5
2017-Jan-15 23:33S 01°05' W 048°30'1414.3
2017-Jan-15 22:33S 01°17' W 048°38'1716.8
2017-Jan-15 21:34S 01°32' W 048°45'0 0.0
2017-Jan-15 10:25S 01°32' W 048°45'0 0.0
2017-Jan-15 07:31S 01°32' W 048°45'6 6.4
2017-Jan-15 06:34S 01°26' W 048°43'1918.7
2017-Jan-15 05:34S 01°10' W 048°34'1010.2
2017-Jan-15 04:33S 01°02' W 048°28'10 9.8
2017-Jan-15 03:33S 00°52' W 048°29'1111.1
2017-Jan-15 02:32S 00°42' W 048°24'1311.1
2017-Jan-15 01:22S 00°31' W 048°17'1111.8
2017-Jan-15 00:29S 00°23' W 048°10'1112.2
2017-Jan-14 23:33S 00°19' W 047°60'1111.5
2017-Jan-14 22:33S 00°13' W 047°50'1212.2
2017-Jan-14 21:33S 00°12' W 047°38'  
2017-Jan-07 10:33S 23°02' W 041°47'6112.1
2017-Jan-07 05:33S 23°06' W 042°53'1212.4
2017-Jan-07 04:33S 23°03' W 043°06'1110.8
2017-Jan-07 03:33S 22°53' W 043°11'1 1.2
2017-Jan-07 02:32S 22°53' W 043°12'0 0.0
2017-Jan-07 01:20S 22°53' W 043°12'0 0.0
2017-Jan-07 00:32S 22°53' W 043°12'0 0.0
2017-Jan-06 23:32S 22°53' W 043°12'0 0.0
2017-Jan-06 22:32S 22°53' W 043°12'0 0.0
2017-Jan-06 21:32S 22°53' W 043°12'0 0.0
2017-Jan-06 20:32S 22°53' W 043°12'0 0.0
2017-Jan-06 19:32S 22°53' W 043°12'2 1.5
2017-Jan-06 18:32S 22°53' W 043°11'8 8.0
2017-Jan-06 17:32S 23°01' W 043°07'5 5.4
2017-Jan-06 16:33S 23°06' W 043°07'  
Track history (hours):
 
Tides and Currents Weather Stations Pressure Air Temp Water Temp Dewpoint Dewpoint Depression Visibility Wind Speed Wind Dir Waves Ship Positions

Cap Castillo

Last reported at 2017-Jan-16 05:17 UTC. Time now 2017-Jan-19 10:53 UTC.
Position S 00°03' W 047°47'.

Length 215 m; draft 10 m.

Type: Ship. MMSI: 636091558.

Date/timePositionNaut miles runAvg speedWind from/ knotsBaromVisibWave heightAir tempDewpointWater temp
2017-Jan-16 05:17S 00°03' W 047°47'1014.1
2017-Jan-16 04:34S 00°13' W 047°50'1514.6
2017-Jan-16 03:33S 00°20' W 048°03'1514.6
2017-Jan-16 02:33S 00°28' W 048°15'1413.8
2017-Jan-16 01:33S 00°39' W 048°23'1414.3
2017-Jan-16 00:33S 00°53' W 048°29'1212.5
2017-Jan-15 23:33S 01°05' W 048°30'1414.3
2017-Jan-15 22:33S 01°17' W 048°38'1716.8
2017-Jan-15 21:34S 01°32' W 048°45'0 0.0
2017-Jan-15 10:25S 01°32' W 048°45'0 0.0
2017-Jan-15 07:31S 01°32' W 048°45'6 6.4
2017-Jan-15 06:34S 01°26' W 048°43'1918.7
2017-Jan-15 05:34S 01°10' W 048°34'1010.2
2017-Jan-15 04:33S 01°02' W 048°28'10 9.8
2017-Jan-15 03:33S 00°52' W 048°29'1111.1
2017-Jan-15 02:32S 00°42' W 048°24'1311.1
2017-Jan-15 01:22S 00°31' W 048°17'1111.8
2017-Jan-15 00:29S 00°23' W 048°10'1112.2
2017-Jan-14 23:33S 00°19' W 047°60'1111.5
2017-Jan-14 22:33S 00°13' W 047°50'1212.2
2017-Jan-14 21:33S 00°12' W 047°38'  
2017-Jan-07 10:33S 23°02' W 041°47'6112.1
2017-Jan-07 05:33S 23°06' W 042°53'1212.4
2017-Jan-07 04:33S 23°03' W 043°06'1110.8
2017-Jan-07 03:33S 22°53' W 043°11'1 1.2
2017-Jan-07 02:32S 22°53' W 043°12'0 0.0
2017-Jan-07 01:20S 22°53' W 043°12'0 0.0
2017-Jan-07 00:32S 22°53' W 043°12'0 0.0
2017-Jan-06 23:32S 22°53' W 043°12'0 0.0
2017-Jan-06 22:32S 22°53' W 043°12'0 0.0
2017-Jan-06 21:32S 22°53' W 043°12'0 0.0
2017-Jan-06 20:32S 22°53' W 043°12'0 0.0
2017-Jan-06 19:32S 22°53' W 043°12'2 1.5
2017-Jan-06 18:32S 22°53' W 043°11'8 8.0
2017-Jan-06 17:32S 23°01' W 043°07'5 5.4
2017-Jan-06 16:33S 23°06' W 043°07'  

Dump ship's entire track history